Time;durP1;ratioP1;P1;durP2;ratioP2;P2;SDS_P1;SDS_P2;PMS_P1;PMS_P2;Temp;Humidity;BMP_temperature;BMP_pressure;BME280_temperature;BME280_humidity;BME280_pressure;Samples;Min_cycle;Max_cycle;Signal;HPM_P1;HPM_P2
2022/08/30 00:07:02;;;;;;;9.57;8.57;;;17.50;99.90;;;;;;5045449;28;20033;-84
2022/08/30 00:09:44;;;;;;;9.65;8.68;;;17.50;99.90;;;;;;5040903;28;20040;-85
2022/08/30 00:12:36;;;;;;;9.05;8.15;;;17.50;99.90;;;;;;5041524;28;20105;-84
2022/08/30 00:15:32;;;;;;;;;;;;;;;;;;;;;
2022/08/30 00:18:01;;;;;;;10.85;8.43;;;17.40;99.90;;;;;;5059445;28;20123;-84
2022/08/30 00:20:30;;;;;;;8.60;7.75;;;17.40;99.90;;;;;;5060442;28;20322;-85
2022/08/30 00:22:56;;;;;;;8.93;8.10;;;17.40;99.90;;;;;;5061688;28;20032;-84
2022/08/30 00:25:27;;;;;;;8.30;7.50;;;17.30;99.90;;;;;;5061941;28;20084;-83
2022/08/30 00:27:56;;;;;;;9.40;8.07;;;17.30;99.90;;;;;;5053565;28;20028;-83
2022/08/30 00:30:30;;;;;;;9.15;8.23;;;17.20;99.90;;;;;;5065576;28;20070;-82
2022/08/30 00:33:12;;;;;;;8.88;8.07;;;17.20;99.90;;;;;;5066489;28;20021;-84
2022/08/30 00:35:55;;;;;;;9.00;8.10;;;17.30;99.90;;;;;;5065692;28;20021;-84
2022/08/30 00:38:26;;;;;;;;;;;17.20;99.90;;;;;;5070761;28;20021;-85
2022/08/30 00:41:05;;;;;;;8.52;7.72;;;17.20;99.90;;;;;;5073375;28;19913;-85
2022/08/30 00:43:42;;;;;;;;;;;;;;;;;;;;;
2022/08/30 00:50:07;;;;;;;8.57;7.80;;;17.10;99.90;;;;;;5073624;28;20036;-85
2022/08/30 00:53:18;;;;;;;7.90;7.20;;;17.10;99.90;;;;;;5028443;28;20038;-84
2022/08/30 00:56:22;;;;;;;8.23;7.43;;;17.10;99.90;;;;;;5028363;28;20092;-82
2022/08/30 00:59:27;;;;;;;8.50;7.68;;;17.10;99.90;;;;;;5006739;28;20022;-84
2022/08/30 01:02:59;;;;;;;8.80;7.90;;;17.10;99.90;;;;;;5043672;28;20040;-84
2022/08/30 01:06:03;;;;;;;10.45;8.30;;;17.00;99.90;;;;;;5044915;28;20089;-84
2022/08/30 01:08:58;;;;;;;9.32;8.18;;;17.00;99.90;;;;;;5061061;28;20033;-84
2022/08/30 01:11:57;;;;;;;;;;;;;;;;;;;;;
2022/08/30 01:14:58;;;;;;;8.88;7.97;;;17.00;99.90;;;;;;5048652;28;20117;-84
2022/08/30 01:18:16;;;;;;;;;;;;;;;;;;;;;
2022/08/30 01:21:15;;;;;;;9.77;8.77;;;16.90;99.90;;;;;;5045328;28;20044;-84
2022/08/30 01:23:59;;;;;;;10.38;9.25;;;16.90;99.90;;;;;;5047411;28;20041;-82
2022/08/30 01:27:01;;;;;;;9.13;8.23;;;16.90;99.90;;;;;;5046959;28;20025;-81
2022/08/30 01:29:54;;;;;;;9.48;8.50;;;16.90;99.90;;;;;;5038460;28;20040;-83
2022/08/30 01:32:40;;;;;;;9.15;8.25;;;16.90;99.90;;;;;;5046867;28;20097;-83
2022/08/30 01:35:37;;;;;;;8.93;8.00;;;16.90;99.90;;;;;;5025532;28;20033;-84
2022/08/30 01:41:27;;;;;;;8.73;7.82;;;16.80;99.90;;;;;;5012884;28;20038;-84
2022/08/30 01:44:23;;;;;;;8.15;7.35;;;16.80;99.90;;;;;;5023199;28;20229;-85
2022/08/30 01:47:08;;;;;;;8.70;7.82;;;16.70;99.90;;;;;;5021126;28;20077;-83
2022/08/30 01:50:01;;;;;;;7.68;6.97;;;16.80;99.90;;;;;;5043063;28;20030;-83
2022/08/30 01:55:50;;;;;;;9.93;7.85;;;16.60;99.90;;;;;;5047868;28;20029;-84
2022/08/30 01:58:42;;;;;;;8.85;7.95;;;16.60;99.90;;;;;;5043200;28;20031;-83
2022/08/30 02:01:39;;;;;;;9.23;8.30;;;16.60;99.90;;;;;;5043299;28;20117;-84
2022/08/30 02:04:43;;;;;;;8.90;8.00;;;16.60;99.90;;;;;;5040728;28;20021;-84
2022/08/30 02:07:24;;;;;;;8.82;7.93;;;16.60;99.90;;;;;;5025573;28;20018;-84
2022/08/30 02:13:12;;;;;;;;;;;16.60;99.90;;;;;;5020403;28;20378;-82
2022/08/30 02:15:38;;;;;;;8.02;7.22;;;16.60;99.90;;;;;;5025355;28;19893;-83
2022/08/30 02:18:09;;;;;;;8.98;8.07;;;16.60;99.90;;;;;;5046823;28;20073;-83
2022/08/30 02:20:42;;;;;;;7.90;7.18;;;16.60;99.90;;;;;;5029536;28;20027;-83
2022/08/30 02:23:08;;;;;;;8.10;7.40;;;16.60;99.90;;;;;;5050719;28;20029;-80
2022/08/30 02:25:37;;;;;;;9.52;8.45;;;16.50;99.90;;;;;;5057966;28;20089;-82
2022/08/30 02:28:05;;;;;;;8.10;7.30;;;16.50;99.90;;;;;;5055613;28;20440;-82
2022/08/30 02:30:39;;;;;;;8.35;7.55;;;16.50;99.90;;;;;;5050996;28;20013;-81
2022/08/30 02:33:08;;;;;;;8.18;7.38;;;16.50;99.90;;;;;;5036464;28;20077;-83
2022/08/30 02:35:36;;;;;;;8.35;7.55;;;16.50;99.90;;;;;;5028118;28;20026;-83
2022/08/30 02:38:04;;;;;;;8.35;7.55;;;16.50;99.90;;;;;;5034593;28;20044;-82
2022/08/30 02:40:44;;;;;;;7.82;7.10;;;16.50;99.90;;;;;;5052340;28;20068;-81
2022/08/30 02:43:16;;;;;;;7.22;6.55;;;16.50;99.90;;;;;;5051474;28;20018;-83
2022/08/30 02:45:42;;;;;;;;;;;16.50;99.90;;;;;;5054916;28;20033;-83
2022/08/30 02:48:08;;;;;;;10.10;8.32;;;16.50;99.90;;;;;;5025528;28;19977;-82
2022/08/30 02:54:18;;;;;;;;;;;;;;;;;;;;;
2022/08/30 03:00:41;;;;;;;;;;;;;;;;;;;;;
2022/08/30 03:03:41;;;;;;;;;;;16.40;99.90;;;;;;5039936;28;20056;-83
2022/08/30 03:06:23;;;;;;;8.45;7.55;;;16.40;99.90;;;;;;5037584;28;19913;-83
2022/08/30 03:09:18;;;;;;;7.85;7.07;;;16.30;99.90;;;;;;5022661;28;20014;-83
2022/08/30 03:11:51;;;;;;;7.78;7.05;;;16.30;99.90;;;;;;5040686;28;20094;-82
2022/08/30 03:14:16;;;;;;;7.93;7.13;;;16.30;99.90;;;;;;5028860;28;20024;-84
2022/08/30 03:16:42;;;;;;;8.25;7.53;;;16.30;99.90;;;;;;5033695;28;20036;-83
2022/08/30 03:19:07;;;;;;;7.72;6.93;;;16.20;99.90;;;;;;5024209;28;20101;-84
2022/08/30 03:21:35;;;;;;;7.18;6.57;;;16.20;99.90;;;;;;5024902;28;20036;-84
2022/08/30 03:24:01;;;;;;;7.60;6.90;;;16.20;99.90;;;;;;5042759;28;20033;-83
2022/08/30 03:26:27;;;;;;;8.63;7.55;;;16.20;99.90;;;;;;5025139;28;20033;-84
2022/08/30 03:28:53;;;;;;;9.32;7.13;;;16.10;99.90;;;;;;5043582;28;20005;-84
2022/08/30 03:31:19;;;;;;;10.40;7.85;;;16.10;99.90;;;;;;5034966;28;20081;-84
2022/08/30 03:33:44;;;;;;;7.93;7.15;;;16.20;99.90;;;;;;5028261;28;20085;-83
2022/08/30 03:36:10;;;;;;;8.55;7.72;;;16.10;99.90;;;;;;5040821;28;20021;-83
2022/08/30 03:38:37;;;;;;;7.80;7.00;;;16.10;99.90;;;;;;5032811;28;20025;-83
2022/08/30 03:41:04;;;;;;;7.88;7.15;;;16.10;99.90;;;;;;5043060;28;20041;-85
2022/08/30 03:43:32;;;;;;;8.35;6.50;;;16.10;99.90;;;;;;5043238;28;20109;-84
2022/08/30 03:45:59;;;;;;;7.63;6.93;;;16.10;99.90;;;;;;5024789;28;20036;-81
2022/08/30 03:48:26;;;;;;;7.82;7.13;;;16.10;99.90;;;;;;5022981;28;20020;-83
2022/08/30 03:50:52;;;;;;;7.38;6.57;;;16.00;99.90;;;;;;5026396;28;20017;-80
2022/08/30 03:53:18;;;;;;;7.32;6.63;;;16.00;99.90;;;;;;5037218;28;20017;-79
2022/08/30 03:55:43;;;;;;;7.13;6.53;;;16.00;99.90;;;;;;5025882;28;20040;-84
2022/08/30 03:58:10;;;;;;;7.93;7.15;;;16.00;99.90;;;;;;5043729;28;20025;-84
2022/08/30 04:00:35;;;;;;;7.30;6.60;;;16.00;99.90;;;;;;5023313;28;20482;-84
2022/08/30 04:03:01;;;;;;;7.75;6.95;;;16.00;99.90;;;;;;5043131;28;20049;-85
2022/08/30 04:05:27;;;;;;;8.07;7.28;;;16.00;99.90;;;;;;5019750;28;20121;-84
2022/08/30 04:07:53;;;;;;;8.48;7.68;;;16.00;99.90;;;;;;5022028;28;20095;-85
2022/08/30 04:10:22;;;;;;;8.30;7.50;;;16.00;99.90;;;;;;5007790;28;20084;-85
2022/08/30 04:12:48;;;;;;;8.05;7.35;;;15.90;99.90;;;;;;5041929;28;20067;-84
2022/08/30 04:15:15;;;;;;;7.93;7.13;;;15.90;99.90;;;;;;5024899;28;20543;-83
2022/08/30 04:17:40;;;;;;;9.27;8.38;;;15.90;99.90;;;;;;5043007;28;20049;-83
2022/08/30 04:20:07;;;;;;;10.38;8.40;;;15.90;99.90;;;;;;5042772;28;20036;-85
2022/08/30 04:22:32;;;;;;;9.40;7.93;;;15.90;99.90;;;;;;5024858;28;20053;-83
2022/08/30 04:24:58;;;;;;;8.15;7.35;;;15.90;99.90;;;;;;5025460;28;20065;-84
2022/08/30 04:27:24;;;;;;;8.00;7.28;;;16.00;99.90;;;;;;5036128;28;20033;-84
2022/08/30 04:29:50;;;;;;;8.25;7.45;;;16.00;99.90;;;;;;5008697;28;20030;-85
2022/08/30 04:32:16;;;;;;;7.57;6.85;;;16.00;99.90;;;;;;5027685;28;20014;-84
2022/08/30 04:34:42;;;;;;;7.70;7.00;;;16.00;99.90;;;;;;5014977;28;20083;-85
2022/08/30 04:37:08;;;;;;;7.10;6.40;;;16.00;99.90;;;;;;5027762;28;20029;-83
2022/08/30 04:39:33;;;;;;;7.20;6.50;;;16.00;99.90;;;;;;5045222;28;20026;-85
2022/08/30 04:42:00;;;;;;;6.93;6.20;;;16.00;99.90;;;;;;5045978;28;20030;-85
2022/08/30 04:44:26;;;;;;;7.55;6.70;;;16.00;99.90;;;;;;5012788;28;20090;-86
2022/08/30 04:46:52;;;;;;;8.13;7.13;;;16.00;99.90;;;;;;5030219;28;20056;-83
2022/08/30 04:49:19;;;;;;;8.13;7.25;;;16.00;99.90;;;;;;5030267;28;20037;-82
2022/08/30 04:51:44;;;;;;;9.23;7.45;;;16.10;99.90;;;;;;5030688;28;20026;-82
2022/08/30 04:54:11;;;;;;;7.53;6.65;;;16.10;99.90;;;;;;5014013;28;20045;-84
2022/08/30 04:56:38;;;;;;;7.78;7.07;;;16.10;99.90;;;;;;5039815;28;20002;-83
2022/08/30 04:59:03;;;;;;;6.65;6.05;;;16.20;99.90;;;;;;5023881;28;20079;-83
2022/08/30 05:01:31;;;;;;;7.53;6.82;;;16.20;99.90;;;;;;5040567;28;20037;-82
2022/08/30 05:03:58;;;;;;;6.93;6.30;;;16.30;99.90;;;;;;5042460;28;20045;-82
2022/08/30 05:06:26;;;;;;;7.60;6.80;;;16.30;99.90;;;;;;5052060;28;20025;-84
2022/08/30 05:08:53;;;;;;;7.35;6.63;;;16.40;99.90;;;;;;5052968;28;20034;-83
2022/08/30 05:11:19;;;;;;;8.02;7.22;;;16.40;99.90;;;;;;5054212;28;20041;-82
2022/08/30 05:13:45;;;;;;;8.23;6.53;;;16.40;99.90;;;;;;5055642;28;20020;-83
2022/08/30 05:16:16;;;;;;;8.05;7.30;;;16.40;99.90;;;;;;5047741;28;20034;-83
2022/08/30 05:18:47;;;;;;;8.37;6.70;;;16.40;99.90;;;;;;5037934;28;20033;-83
2022/08/30 05:21:16;;;;;;;8.73;7.82;;;16.50;99.90;;;;;;5035676;28;20280;-83
2022/08/30 05:23:43;;;;;;;8.57;7.07;;;16.50;99.90;;;;;;5031185;28;20030;-82
2022/08/30 05:26:14;;;;;;;8.07;6.97;;;16.60;99.90;;;;;;5031788;28;20036;-83
2022/08/30 05:28:41;;;;;;;7.18;6.57;;;16.60;99.90;;;;;;5031737;28;20102;-83
2022/08/30 05:31:20;;;;;;;8.65;7.45;;;16.60;99.90;;;;;;5033935;28;20029;-83
2022/08/30 05:33:46;;;;;;;7.72;6.90;;;16.70;99.90;;;;;;5038518;28;20025;-84
2022/08/30 05:36:14;;;;;;;8.90;7.28;;;16.70;99.90;;;;;;5041835;28;20045;-82
2022/08/30 05:38:41;;;;;;;7.68;6.97;;;16.80;99.90;;;;;;5024507;28;20053;-83
2022/08/30 05:41:11;;;;;;;7.47;6.78;;;16.80;99.90;;;;;;5027238;28;20061;-82
2022/08/30 05:43:40;;;;;;;10.10;7.38;;;16.90;99.90;;;;;;5029204;28;20038;-83
2022/08/30 05:46:09;;;;;;;9.10;7.15;;;16.90;99.90;;;;;;5030002;28;20026;-83
2022/08/30 05:48:44;;;;;;;7.68;6.95;;;17.00;99.90;;;;;;5030136;28;20021;-82
2022/08/30 05:51:22;;;;;;;9.15;8.07;;;17.00;99.90;;;;;;5039831;28;20072;-84
2022/08/30 05:53:53;;;;;;;8.55;7.60;;;17.10;99.90;;;;;;5020192;28;20518;-82
2022/08/30 05:56:23;;;;;;;7.15;6.45;;;17.10;99.90;;;;;;5029203;28;20030;-82
2022/08/30 05:58:52;;;;;;;7.47;6.78;;;17.20;99.90;;;;;;5041606;28;20033;-83
2022/08/30 06:01:31;;;;;;;9.40;6.95;;;17.20;99.90;;;;;;5019117;28;20037;-82
2022/08/30 06:04:12;;;;;;;6.82;6.00;;;17.30;99.90;;;;;;5031018;28;20157;-82
2022/08/30 06:06:48;;;;;;;6.85;6.15;;;17.30;99.90;;;;;;5054547;28;20078;-82
2022/08/30 06:09:15;;;;;;;6.38;5.78;;;17.40;99.90;;;;;;5033331;28;20037;-83
2022/08/30 06:11:42;;;;;;;10.43;6.55;;;17.50;99.90;;;;;;5036382;28;20037;-82
2022/08/30 06:14:08;;;;;;;6.18;5.57;;;17.60;99.90;;;;;;5020527;28;20101;-84
2022/08/30 06:16:37;;;;;;;7.05;6.07;;;17.70;99.90;;;;;;5021287;28;20029;-83
2022/08/30 06:19:04;;;;;;;10.48;7.25;;;17.70;99.90;;;;;;5021578;28;20062;-83
2022/08/30 06:21:33;;;;;;;7.45;6.07;;;17.80;99.90;;;;;;5021569;28;20029;-83
2022/08/30 06:24:00;;;;;;;8.27;6.70;;;17.80;99.90;;;;;;5016643;28;20029;-83
2022/08/30 06:26:29;;;;;;;6.78;6.18;;;17.80;99.90;;;;;;5031584;28;20484;-83
2022/08/30 06:28:56;;;;;;;6.93;6.25;;;17.90;99.90;;;;;;5026611;28;20025;-83
2022/08/30 06:31:24;;;;;;;7.18;6.03;;;17.90;99.90;;;;;;5032849;28;20474;-83
2022/08/30 06:33:51;;;;;;;7.63;6.28;;;18.00;99.90;;;;;;5035079;28;20032;-83
2022/08/30 06:36:21;;;;;;;9.32;6.97;;;18.10;99.90;;;;;;5037469;28;20033;-84
2022/08/30 06:38:52;;;;;;;7.25;5.93;;;18.10;99.90;;;;;;5049619;28;20026;-82
2022/08/30 06:41:23;;;;;;;6.68;5.93;;;18.20;99.90;;;;;;5052976;28;20040;-83
2022/08/30 06:43:50;;;;;;;6.55;5.95;;;18.30;99.90;;;;;;5053643;28;20028;-82
2022/08/30 06:46:22;;;;;;;6.30;5.70;;;18.40;99.90;;;;;;5034974;28;20021;-81
2022/08/30 06:48:49;;;;;;;5.75;5.25;;;18.40;99.90;;;;;;5031154;28;20010;-80
2022/08/30 06:51:19;;;;;;;6.10;5.50;;;18.60;99.90;;;;;;5041243;28;20034;-81
2022/08/30 06:53:45;;;;;;;10.02;5.63;;;18.60;99.90;;;;;;5051731;28;20098;-80
2022/08/30 06:56:11;;;;;;;6.20;5.53;;;18.70;99.90;;;;;;5032302;28;20084;-79
2022/08/30 06:58:38;;;;;;;6.10;5.47;;;18.80;99.90;;;;;;5047031;28;20035;-79
2022/08/30 07:01:05;;;;;;;5.90;5.35;;;18.90;99.90;;;;;;5049371;28;20037;-80
2022/08/30 07:03:30;;;;;;;6.78;5.35;;;19.00;99.90;;;;;;5036411;28;20025;-79
2022/08/30 07:05:56;;;;;;;5.90;5.20;;;19.10;99.90;;;;;;5039556;28;20021;-79
2022/08/30 07:08:23;;;;;;;5.63;5.13;;;19.20;99.90;;;;;;5051111;28;20041;-79
2022/08/30 07:10:52;;;;;;;5.85;5.35;;;19.30;99.90;;;;;;5038758;28;20041;-78
2022/08/30 07:13:19;;;;;;;5.75;5.15;;;19.40;99.80;;;;;;5048698;28;20030;-78
2022/08/30 07:15:45;;;;;;;6.28;5.60;;;19.50;99.50;;;;;;5049251;28;20024;-79
2022/08/30 07:20:58;;;;;;;6.00;5.40;;;19.60;99.20;;;;;;5034018;28;20055;-79
2022/08/30 07:23:23;;;;;;;6.43;5.80;;;19.80;98.80;;;;;;5029385;28;20548;-78
2022/08/30 07:25:49;;;;;;;6.03;5.47;;;19.90;98.40;;;;;;5028957;28;20049;-79
2022/08/30 07:28:16;;;;;;;6.32;5.70;;;20.00;98.10;;;;;;5029120;28;20029;-79
2022/08/30 07:30:42;;;;;;;6.85;5.90;;;20.10;97.70;;;;;;5037865;28;20029;-79
2022/08/30 07:33:08;;;;;;;8.13;6.63;;;20.20;97.40;;;;;;5050754;28;20086;-79
2022/08/30 07:35:36;;;;;;;8.02;6.22;;;20.30;96.90;;;;;;5039761;28;20018;-79
2022/08/30 07:38:01;;;;;;;12.10;7.10;;;20.40;96.50;;;;;;5010660;28;20034;-79
2022/08/30 07:40:27;;;;;;;6.85;5.80;;;20.60;96.20;;;;;;5032119;28;20041;-79
2022/08/30 07:42:52;;;;;;;10.48;6.80;;;20.70;96.00;;;;;;5048513;28;20029;-79
2022/08/30 07:45:18;;;;;;;7.20;6.15;;;20.90;95.40;;;;;;5048890;28;20039;-79
2022/08/30 07:47:44;;;;;;;7.50;6.35;;;21.00;95.10;;;;;;5048305;28;20021;-80
2022/08/30 07:50:11;;;;;;;6.30;5.55;;;21.10;94.80;;;;;;5048424;28;20049;-78
2022/08/30 07:52:37;;;;;;;7.90;6.50;;;21.30;94.80;;;;;;5031956;28;20026;-79
2022/08/30 07:55:04;;;;;;;7.05;6.15;;;21.40;94.10;;;;;;5028897;28;20129;-80
2022/08/30 07:57:33;;;;;;;7.00;6.30;;;21.50;93.90;;;;;;5011346;28;20030;-80
2022/08/30 07:59:59;;;;;;;6.43;5.45;;;21.70;93.40;;;;;;5029638;28;20037;-79
2022/08/30 08:02:25;;;;;;;7.60;5.78;;;21.80;93.00;;;;;;5044650;28;20029;-78
2022/08/30 08:04:51;;;;;;;6.88;5.70;;;21.90;92.70;;;;;;5041220;28;20030;-78
2022/08/30 08:07:17;;;;;;;6.35;5.43;;;22.10;92.40;;;;;;5026970;28;20033;-78
2022/08/30 08:09:43;;;;;;;6.57;5.97;;;22.30;92.30;;;;;;5026025;28;20026;-79
2022/08/30 08:12:12;;;;;;;7.00;6.30;;;22.50;91.80;;;;;;5025381;28;20038;-80
2022/08/30 08:14:39;;;;;;;7.30;6.60;;;22.60;91.00;;;;;;5029934;28;20029;-79
2022/08/30 08:17:05;;;;;;;7.60;6.18;;;22.60;90.80;;;;;;5028161;28;20129;-80
2022/08/30 08:19:31;;;;;;;5.60;5.10;;;22.60;90.50;;;;;;5029573;28;20026;-79
2022/08/30 08:21:59;;;;;;;7.78;5.60;;;22.80;90.40;;;;;;5034531;28;20029;-80
2022/08/30 08:24:26;;;;;;;6.00;5.50;;;22.90;89.40;;;;;;5048923;28;20013;-79
2022/08/30 08:26:52;;;;;;;8.70;6.22;;;23.00;88.20;;;;;;5049544;28;20073;-79
2022/08/30 08:29:17;;;;;;;6.50;5.40;;;23.10;87.70;;;;;;5051569;28;20453;-78
2022/08/30 08:31:45;;;;;;;5.60;5.10;;;23.20;87.40;;;;;;5054677;28;20017;-80
2022/08/30 08:34:11;;;;;;;6.82;5.72;;;23.40;87.20;;;;;;5052952;28;20036;-79
2022/08/30 08:36:37;;;;;;;8.13;5.50;;;23.60;86.10;;;;;;5044922;28;20041;-79
2022/08/30 08:39:05;;;;;;;9.73;6.28;;;23.70;85.00;;;;;;5027010;28;20041;-78
2022/08/30 08:41:38;;;;;;;6.38;5.75;;;23.70;82.80;;;;;;5045701;28;20027;-78
2022/08/30 08:44:25;;;;;;;6.20;5.63;;;23.70;83.30;;;;;;5047269;28;20028;-79
2022/08/30 08:47:11;;;;;;;6.80;6.10;;;23.80;83.30;;;;;;5047464;28;20089;-79
2022/08/30 08:49:39;;;;;;;5.68;5.15;;;24.00;82.60;;;;;;5046111;28;20048;-78
2022/08/30 08:55:00;;;;;;;5.72;5.10;;;24.50;79.20;;;;;;5051303;28;20029;-79
2022/08/30 08:57:32;;;;;;;9.93;5.82;;;24.80;78.00;;;;;;5047631;28;20101;-79
2022/08/30 08:59:58;;;;;;;5.25;4.78;;;24.80;74.60;;;;;;5031110;28;20030;-78
2022/08/30 09:02:32;;;;;;;8.68;6.35;;;24.80;73.60;;;;;;5012247;28;20041;-78
2022/08/30 09:05:01;;;;;;;6.32;5.75;;;24.80;73.70;;;;;;5046507;28;20089;-78
2022/08/30 09:07:33;;;;;;;7.25;4.90;;;24.90;74.50;;;;;;5049259;28;20081;-79
2022/08/30 09:09:59;;;;;;;6.82;6.13;;;25.00;74.70;;;;;;5050140;28;20063;-79
2022/08/30 09:12:26;;;;;;;6.68;5.53;;;25.00;73.40;;;;;;5067536;28;20040;-79
2022/08/30 09:15:07;;;;;;;7.10;5.40;;;25.10;73.10;;;;;;5069593;28;20029;-78
2022/08/30 09:17:52;;;;;;;6.50;5.50;;;25.10;73.40;;;;;;5056163;28;20041;-79
2022/08/30 09:20:47;;;;;;;5.95;5.35;;;25.30;73.00;;;;;;5050537;28;20117;-79
2022/08/30 09:23:16;;;;;;;5.80;5.20;;;25.40;71.40;;;;;;5042138;28;20038;-79
2022/08/30 09:25:58;;;;;;;6.25;5.70;;;25.50;70.40;;;;;;5030834;28;20091;-78
2022/08/30 09:28:30;;;;;;;7.78;5.50;;;25.60;69.40;;;;;;5032104;28;20192;-79
2022/08/30 09:31:00;;;;;;;;;;;25.70;70.80;;;;;;5029822;28;20022;-79
2022/08/30 09:33:26;;;;;;;5.80;5.15;;;26.00;69.50;;;;;;5032506;28;19909;-78
2022/08/30 09:35:53;;;;;;;5.70;5.18;;;26.40;69.00;;;;;;5042554;28;20621;-79
2022/08/30 09:38:27;;;;;;;7.20;5.68;;;26.50;67.70;;;;;;5048301;28;20159;-79
2022/08/30 09:40:56;;;;;;;8.98;5.20;;;26.60;65.70;;;;;;5044667;28;20025;-78
2022/08/30 09:43:23;;;;;;;5.75;4.60;;;26.90;65.40;;;;;;5049988;28;20040;-79
2022/08/30 09:46:09;;;;;;;5.75;4.70;;;27.20;65.50;;;;;;5052471;28;20035;-79
2022/08/30 09:48:39;;;;;;;6.85;4.80;;;27.10;63.90;;;;;;5050685;28;20037;-79
2022/08/30 09:51:10;;;;;;;6.20;4.50;;;27.10;62.00;;;;;;5050504;28;20135;-77
2022/08/30 09:54:18;;;;;;;6.43;4.28;;;26.90;63.10;;;;;;5032990;28;20044;-78
2022/08/30 09:57:18;;;;;;;5.32;4.88;;;26.80;62.60;;;;;;5029302;28;20049;-79
2022/08/30 10:00:06;;;;;;;4.82;4.32;;;26.90;63.20;;;;;;5033218;28;20033;-79
2022/08/30 10:02:38;;;;;;;5.00;4.60;;;27.10;62.00;;;;;;5043406;28;20026;-77
2022/08/30 10:05:22;;;;;;;;;;;27.00;59.60;;;;;;5048599;28;20073;-78
2022/08/30 10:08:21;;;;;;;4.63;4.10;;;27.00;59.90;;;;;;5026653;28;20393;-78
2022/08/30 10:11:15;;;;;;;6.18;4.78;;;27.10;61.80;;;;;;5027773;28;20038;-79
2022/08/30 10:14:16;;;;;;;4.55;4.20;;;27.30;62.10;;;;;;5049008;28;20048;-79
2022/08/30 10:17:12;;;;;;;4.90;4.50;;;27.60;61.90;;;;;;5050462;28;20029;-79
2022/08/30 10:19:53;;;;;;;6.82;5.25;;;27.60;60.10;;;;;;5047970;28;20033;-79
2022/08/30 10:22:28;;;;;;;6.30;5.15;;;27.60;58.40;;;;;;5026915;28;20036;-80
2022/08/30 10:25:11;;;;;;;5.68;4.93;;;27.40;59.60;;;;;;5033975;28;20025;-80
2022/08/30 10:27:53;;;;;;;5.00;4.45;;;27.30;60.60;;;;;;5034501;28;20369;-80
2022/08/30 10:30:19;;;;;;;5.22;4.72;;;27.40;58.90;;;;;;5036564;28;20479;-78
2022/08/30 10:33:15;;;;;;;5.18;4.43;;;27.50;59.00;;;;;;5047743;28;20037;-78
2022/08/30 10:35:49;;;;;;;4.22;3.92;;;27.60;56.20;;;;;;5036482;28;20034;-79
2022/08/30 10:38:29;;;;;;;5.43;4.28;;;27.50;57.30;;;;;;5030322;28;20065;-80
2022/08/30 10:41:26;;;;;;;4.78;4.25;;;27.60;57.40;;;;;;5069554;22;20045;-86
2022/08/30 10:44:29;;;;;;;4.50;4.18;;;27.70;57.10;;;;;;5050768;28;20071;-85
2022/08/30 10:47:30;;;;;;;4.43;4.13;;;27.60;56.50;;;;;;5050946;28;20442;-85
2022/08/30 10:50:17;;;;;;;7.65;4.15;;;27.60;57.30;;;;;;5038634;28;20026;-85
2022/08/30 10:53:10;;;;;;;5.28;4.60;;;27.70;57.10;;;;;;5040024;28;20040;-86
2022/08/30 10:55:44;;;;;;;4.20;3.80;;;27.60;56.20;;;;;;5038224;28;20034;-85
2022/08/30 10:58:12;;;;;;;5.20;4.03;;;27.60;56.90;;;;;;5039329;28;20022;-85
2022/08/30 11:01:05;;;;;;;5.90;4.07;;;27.60;55.60;;;;;;5025075;28;20117;-84
2022/08/30 11:03:54;;;;;;;5.05;4.65;;;27.80;56.50;;;;;;5034519;28;20100;-85
2022/08/30 11:06:35;;;;;;;4.70;4.18;;;27.80;55.00;;;;;;5058758;28;20018;-86
2022/08/30 11:09:30;;;;;;;4.82;4.20;;;28.00;56.00;;;;;;5024191;28;20052;-83
2022/08/30 11:12:31;;;;;;;4.80;4.35;;;28.20;56.30;;;;;;5031823;28;20063;-85
2022/08/30 11:14:58;;;;;;;4.70;4.30;;;28.10;54.60;;;;;;5055473;28;20030;-83
2022/08/30 11:17:24;;;;;;;6.05;4.40;;;27.70;54.90;;;;;;5029826;28;20032;-84
2022/08/30 11:19:54;;;;;;;4.47;4.10;;;27.60;55.40;;;;;;5054579;28;20118;-84
2022/08/30 11:22:31;;;;;;;7.05;4.43;;;27.50;56.50;;;;;;5033218;28;20029;-84
2022/08/30 11:25:11;;;;;;;4.57;4.15;;;27.70;55.30;;;;;;5058394;28;20053;-84
2022/08/30 11:27:53;;;;;;;5.53;3.70;;;27.70;56.00;;;;;;5042309;28;20025;-84
2022/08/30 11:31:12;;;;;;;4.35;3.95;;;27.90;55.30;;;;;;5027222;28;20052;-85
2022/08/30 11:34:02;;;;;;;6.13;3.92;;;27.80;54.30;;;;;;5023465;28;20034;-85
2022/08/30 11:36:29;;;;;;;5.32;4.38;;;27.50;54.90;;;;;;5022028;28;20025;-84
2022/08/30 11:39:04;;;;;;;4.88;3.88;;;27.50;54.60;;;;;;5022270;28;20036;-85
2022/08/30 11:42:05;;;;;;;4.22;3.85;;;27.50;54.20;;;;;;5030597;28;20407;-85
2022/08/30 11:44:41;;;;;;;4.00;3.70;;;27.40;55.00;;;;;;5052891;28;20037;-84
2022/08/30 11:47:50;;;;;;;4.60;4.10;;;27.60;55.20;;;;;;5045354;28;20064;-84
2022/08/30 11:50:54;;;;;;;5.53;4.38;;;27.70;53.00;;;;;;5061128;28;20111;-84
2022/08/30 11:53:27;;;;;;;3.90;3.60;;;27.80;52.60;;;;;;5051890;28;20043;-84
2022/08/30 11:56:20;;;;;;;4.50;4.10;;;27.80;53.40;;;;;;5046000;28;20025;-83
2022/08/30 11:59:24;;;;;;;6.05;4.00;;;27.90;53.60;;;;;;5075835;28;20097;-83
2022/08/30 12:02:00;;;;;;;8.90;4.28;;;27.80;54.30;;;;;;5074214;28;20020;-84
2022/08/30 12:04:27;;;;;;;5.45;4.93;;;27.90;54.20;;;;;;5074587;28;20029;-85
2022/08/30 12:07:03;;;;;;;6.97;4.45;;;27.90;53.10;;;;;;5075640;28;20023;-82
2022/08/30 12:09:32;;;;;;;5.93;3.92;;;27.90;54.30;;;;;;5057613;28;20052;-84
2022/08/30 12:12:08;;;;;;;4.72;4.38;;;28.00;54.30;;;;;;5061461;28;20086;-84
2022/08/30 12:14:50;;;;;;;4.38;3.97;;;28.30;53.70;;;;;;5059465;28;20009;-82
2022/08/30 12:21:09;;;;;;;5.97;3.92;;;28.60;53.20;;;;;;5061770;28;20078;-84
2022/08/30 12:24:14;;;;;;;5.25;4.10;;;28.50;53.20;;;;;;5051299;28;20135;-84
2022/08/30 12:26:43;;;;;;;3.95;3.60;;;28.50;53.30;;;;;;5051924;28;20032;-83
2022/08/30 12:29:09;;;;;;;4.22;3.53;;;28.50;51.70;;;;;;5075920;28;20031;-84
2022/08/30 12:31:59;;;;;;;4.10;3.67;;;28.60;52.40;;;;;;5061675;28;20018;-84
2022/08/30 12:34:33;;;;;;;4.38;3.97;;;28.70;52.50;;;;;;5038027;28;20018;-83
2022/08/30 12:37:18;;;;;;;5.53;4.75;;;28.90;52.20;;;;;;5038350;28;20089;-82
2022/08/30 12:39:44;;;;;;;4.30;3.90;;;28.70;52.20;;;;;;5051228;28;20075;-83
2022/08/30 12:42:21;;;;;;;5.60;3.85;;;28.50;52.90;;;;;;5048044;28;20017;-83
2022/08/30 12:44:53;;;;;;;4.10;3.67;;;28.50;53.20;;;;;;5070227;28;20028;-83
2022/08/30 12:47:28;;;;;;;4.25;3.85;;;28.60;52.90;;;;;;5075842;28;20032;-85
2022/08/30 12:49:55;;;;;;;4.97;3.90;;;28.70;53.00;;;;;;5073809;28;20040;-82
2022/08/30 12:52:32;;;;;;;7.95;5.10;;;28.30;54.10;;;;;;5074105;28;20025;-83
2022/08/30 12:55:51;;;;;;;5.43;4.40;;;28.20;54.10;;;;;;5064846;28;20069;-84
2022/08/30 12:58:48;;;;;;;4.03;3.63;;;28.30;54.10;;;;;;5066404;28;20025;-85
2022/08/30 13:01:29;;;;;;;7.60;4.38;;;28.30;54.10;;;;;;5067339;28;20052;-83
2022/08/30 13:03:57;;;;;;;4.32;3.92;;;28.50;53.40;;;;;;5061286;28;20375;-83
2022/08/30 13:06:48;;;;;;;7.00;4.85;;;28.50;53.80;;;;;;5048947;28;20456;-84
2022/08/30 13:09:30;;;;;;;4.80;4.30;;;28.60;52.80;;;;;;5059085;28;20029;-84
2022/08/30 13:11:56;;;;;;;;;;;28.50;52.30;;;;;;5051399;28;20040;-84
2022/08/30 13:14:32;;;;;;;4.40;4.00;;;28.60;53.40;;;;;;5051713;28;19905;-84
2022/08/30 13:17:30;;;;;;;4.68;4.28;;;28.70;52.40;;;;;;5061289;28;20036;-85
2022/08/30 13:20:11;;;;;;;4.55;4.15;;;28.70;51.90;;;;;;5062928;28;20107;-84
2022/08/30 13:22:39;;;;;;;5.80;4.57;;;28.70;52.10;;;;;;5059976;28;20048;-85
2022/08/30 13:25:10;;;;;;;4.75;4.35;;;28.70;52.50;;;;;;5053647;28;20391;-84
2022/08/30 13:27:39;;;;;;;4.65;4.20;;;28.80;52.90;;;;;;5046823;28;20177;-84
2022/08/30 13:33:45;;;;;;;4.63;4.07;;;29.10;51.10;;;;;;5006781;28;20037;-84
2022/08/30 13:36:12;;;;;;;4.03;3.63;;;29.20;51.60;;;;;;5054088;28;20025;-83
2022/08/30 13:38:39;;;;;;;4.38;3.92;;;29.30;50.30;;;;;;5058374;28;20120;-85
2022/08/30 13:41:08;;;;;;;4.55;4.13;;;29.40;51.30;;;;;;5063465;28;20091;-84
2022/08/30 13:43:34;;;;;;;6.45;4.00;;;29.70;51.70;;;;;;5055397;28;20029;-85
2022/08/30 13:46:00;;;;;;;4.82;4.40;;;29.80;49.80;;;;;;5046142;28;20033;-86
2022/08/30 13:48:25;;;;;;;4.30;4.00;;;29.60;50.20;;;;;;5063565;28;20029;-84
2022/08/30 13:50:52;;;;;;;4.20;3.80;;;29.50;50.60;;;;;;5059076;28;20114;-84
2022/08/30 13:53:18;;;;;;;4.22;3.83;;;29.60;51.10;;;;;;5027069;28;20030;-85
2022/08/30 13:55:44;;;;;;;4.47;4.07;;;29.70;50.10;;;;;;5036101;28;20025;-84
2022/08/30 13:58:10;;;;;;;4.60;3.90;;;29.70;48.80;;;;;;5051140;28;20471;-83
2022/08/30 14:00:36;;;;;;;4.35;3.63;;;29.50;49.40;;;;;;5045569;28;20026;-86
2022/08/30 14:03:02;;;;;;;4.18;3.78;;;29.20;49.50;;;;;;5047375;28;20032;-84
2022/08/30 14:05:31;;;;;;;4.82;3.80;;;28.90;49.60;;;;;;5058230;28;20021;-84
2022/08/30 14:07:57;;;;;;;4.43;3.60;;;28.70;50.50;;;;;;5040794;28;20220;-84
2022/08/30 14:10:26;;;;;;;4.35;3.95;;;28.60;51.30;;;;;;5057740;28;20505;-83
2022/08/30 14:12:52;;;;;;;3.80;3.50;;;28.40;49.40;;;;;;5055472;28;20025;-84
2022/08/30 14:15:21;;;;;;;6.00;3.38;;;28.10;50.60;;;;;;5056255;28;20367;-86